首页
METAR-TAF:

METAR-TAF

机场 :

斯德哥爾摩-阿蘭達機場

斯德哥爾摩-阿蘭達, 瑞典

纬度: 59-39N, 经度: 017-57E, 海拔: 38米

当前天气观测

该预报发布于39分钟前的10:50 UTC
风速7节,风向西
温度 7°C
湿度 81%
气压 1038 hPa
能见度10公里或以上
1500米以下无云,无积雨云

METAR: ESSA 171050Z 28007KT CAVOK 07/04 Q1038 R01L/0///95 R08/0///95 R01R/0///95 NOSIG

时间: 12:29 (11:29 UTC)

预报

该预报发布于2小时和59分钟前的08:30 UTC
预报有效从17日的 08点(UTC)到 18日的 06点(UTC)
风速5节,风向西
能见度10公里或以上
1500米以下无云,无积雨云
成为
从 17日的 14点(UTC)到 17日的 17点(UTC)
风速10节,风向西北

TAF: ESSA 170830Z 1708/1806 26005KT CAVOK BECMG 1714/1717 32010KT

超过4000个机场的气象观测和天气预报(METAR&TAF报告)。

可查询的气象台以黄色和红色小点在地图上表示。

将鼠标移到小点上方,可查看气象台名称。

然后点击查看天气观测和预报。

如需切换地图:点击带黑十字的绿色按钮放大地图;点击带横线的绿色按钮缩小地图;或者点击绿色箭头查看邻近地区的地图。


METAR-TAF: